createdAt,value
2023-04-16T00:00:03.911Z,86.08
2023-04-16T00:02:32.108Z,86.12
2023-04-16T00:04:59.877Z,86.05
2023-04-16T00:07:27.572Z,86.14
2023-04-16T00:09:55.666Z,86.16
2023-04-16T00:12:23.778Z,86.19
2023-04-16T00:14:51.471Z,86.17
2023-04-16T00:17:19.134Z,86.19
2023-04-16T00:19:46.785Z,86.21
2023-04-16T00:22:14.466Z,86.18
2023-04-16T00:24:42.273Z,86.25
2023-04-16T00:27:09.972Z,86.27
2023-04-16T00:29:37.606Z,86.33
2023-04-16T00:32:05.940Z,86.47
2023-04-16T00:34:33.589Z,86.46
2023-04-16T00:37:01.482Z,86.43
2023-04-16T00:39:29.146Z,86.56
2023-04-16T00:41:56.851Z,86.60
2023-04-16T00:44:24.530Z,86.59
2023-04-16T00:46:52.297Z,86.74
2023-04-16T00:49:20.017Z,86.75
2023-04-16T00:51:48.152Z,86.77
2023-04-16T00:54:15.983Z,86.80
2023-04-16T00:56:44.598Z,86.81
2023-04-16T00:59:12.524Z,86.80
2023-04-16T01:01:40.609Z,86.85
2023-04-16T01:04:08.651Z,86.86
2023-04-16T01:06:36.479Z,86.90
2023-04-16T01:09:04.210Z,86.89
2023-04-16T01:11:32.091Z,86.90
2023-04-16T01:13:59.705Z,86.89
2023-04-16T01:16:27.461Z,86.88
2023-04-16T01:18:55.144Z,86.88
2023-04-16T01:21:22.779Z,86.89
2023-04-16T01:23:50.563Z,86.92
2023-04-16T01:26:18.208Z,86.97
2023-04-16T01:28:45.916Z,87.04
2023-04-16T01:31:13.595Z,87.05
2023-04-16T01:33:41.328Z,87.04
2023-04-16T01:36:09.000Z,87.06
2023-04-16T01:38:36.677Z,87.12
2023-04-16T01:41:04.304Z,87.10
2023-04-16T01:43:31.984Z,87.11
2023-04-16T01:46:15.248Z,87.13
2023-04-16T01:48:43.133Z,87.14
2023-04-16T01:51:10.977Z,87.18
2023-04-16T01:53:38.726Z,87.21
2023-04-16T01:56:06.863Z,87.17
2023-04-16T01:58:35.759Z,87.19
2023-04-16T02:01:04.528Z,87.22
2023-04-16T02:03:32.659Z,87.26
2023-04-16T02:06:01.529Z,87.25
2023-04-16T02:08:29.201Z,87.26
2023-04-16T02:10:57.576Z,87.35
2023-04-16T02:13:26.140Z,87.39
2023-04-16T02:15:53.940Z,87.42
2023-04-16T02:18:21.584Z,87.41
2023-04-16T02:20:51.888Z,87.42
2023-04-16T02:23:19.534Z,87.46
2023-04-16T02:25:47.702Z,87.44
2023-04-16T02:28:17.128Z,87.46
2023-04-16T02:30:45.298Z,87.45
2023-04-16T02:33:13.295Z,87.47
2023-04-16T02:35:41.350Z,87.49
2023-04-16T02:38:09.284Z,87.46
2023-04-16T02:40:37.062Z,87.54
2023-04-16T02:43:04.722Z,87.61
2023-04-16T02:45:32.445Z,87.58
2023-04-16T02:48:00.957Z,87.65
2023-04-16T02:50:28.767Z,87.70
2023-04-16T02:52:56.493Z,87.71
2023-04-16T02:55:24.269Z,87.72
2023-04-16T02:57:53.082Z,87.72
2023-04-16T03:00:20.840Z,87.69
2023-04-16T03:02:48.656Z,87.68
2023-04-16T03:05:16.621Z,87.64
2023-04-16T03:07:44.326Z,87.62
2023-04-16T03:10:12.485Z,87.60
2023-04-16T03:12:40.131Z,87.64
2023-04-16T03:15:08.511Z,87.67
2023-04-16T03:17:36.447Z,87.71
2023-04-16T03:20:05.778Z,87.76
2023-04-16T03:22:33.468Z,87.79
2023-04-16T03:25:01.425Z,87.75
2023-04-16T03:27:29.092Z,87.72
2023-04-16T03:29:57.245Z,87.75
2023-04-16T03:32:24.949Z,87.81
2023-04-16T03:34:52.783Z,87.85
2023-04-16T03:37:20.547Z,87.86
2023-04-16T03:39:48.208Z,87.89
2023-04-16T03:42:16.157Z,87.89
2023-04-16T03:44:43.955Z,87.90
2023-04-16T03:47:11.716Z,87.91
2023-04-16T03:49:39.359Z,87.91
2023-04-16T03:52:07.420Z,87.88
2023-04-16T03:54:35.103Z,87.87
2023-04-16T03:57:03.068Z,87.83
2023-04-16T03:59:30.833Z,87.85
2023-04-16T04:01:58.495Z,87.92
2023-04-16T04:04:26.426Z,87.92
2023-04-16T04:06:54.365Z,87.93
2023-04-16T04:09:22.093Z,87.92
2023-04-16T04:11:50.635Z,87.94
2023-04-16T04:14:18.333Z,87.94
2023-04-16T04:16:46.430Z,87.93
2023-04-16T04:19:14.270Z,87.93
2023-04-16T04:21:41.902Z,87.93
2023-04-16T04:24:09.668Z,87.90
2023-04-16T04:26:37.536Z,87.86
2023-04-16T04:29:05.838Z,87.84
2023-04-16T04:31:33.662Z,87.81
2023-04-16T04:34:01.392Z,87.84
2023-04-16T04:36:29.122Z,87.83
2023-04-16T04:38:56.814Z,87.83
2023-04-16T04:41:24.759Z,87.82
2023-04-16T04:43:52.648Z,87.78
2023-04-16T04:46:20.563Z,87.79
2023-04-16T04:48:48.446Z,87.77
2023-04-16T04:51:16.081Z,87.77
2023-04-16T04:53:43.770Z,87.77
2023-04-16T04:56:13.031Z,87.67
2023-04-16T04:58:41.985Z,87.65
2023-04-16T05:01:09.805Z,87.63
2023-04-16T05:03:37.803Z,87.51
2023-04-16T05:06:07.090Z,87.40
2023-04-16T05:08:34.718Z,87.37
2023-04-16T05:11:02.513Z,87.32
2023-04-16T05:13:30.157Z,87.36
2023-04-16T05:15:57.943Z,87.32
2023-04-16T05:18:25.602Z,87.19
2023-04-16T05:20:53.362Z,87.10
2023-04-16T05:23:21.028Z,86.97
2023-04-16T05:25:48.688Z,86.83
2023-04-16T05:28:16.346Z,86.81
2023-04-16T05:30:44.095Z,86.75
2023-04-16T05:33:11.751Z,86.55
2023-04-16T05:35:39.465Z,86.54
2023-04-16T05:38:07.178Z,86.55
2023-04-16T05:40:34.860Z,86.38
2023-04-16T05:43:02.618Z,86.02
2023-04-16T05:45:31.502Z,85.72
2023-04-16T05:47:59.228Z,85.55
2023-04-16T05:50:27.030Z,85.36
2023-04-16T05:52:54.790Z,85.28
2023-04-16T05:55:22.876Z,84.95
2023-04-16T05:57:50.636Z,84.95
2023-04-16T06:00:18.581Z,84.84
2023-04-16T06:02:46.465Z,84.65
2023-04-16T06:05:14.662Z,84.21
2023-04-16T06:07:42.739Z,84.07
2023-04-16T06:10:10.996Z,83.25
2023-04-16T06:12:38.651Z,82.80
2023-04-16T06:15:07.402Z,82.33
2023-04-16T06:17:35.170Z,82.69
2023-04-16T06:20:03.080Z,82.52
2023-04-16T06:22:31.033Z,82.54
2023-04-16T06:24:58.837Z,82.65
2023-04-16T06:27:27.277Z,82.53
2023-04-16T06:29:54.920Z,82.32
2023-04-16T06:32:22.810Z,81.28
2023-04-16T06:34:50.969Z,80.69
2023-04-16T06:37:18.593Z,80.97
2023-04-16T06:39:46.215Z,81.26
2023-04-16T06:42:14.077Z,80.51
2023-04-16T06:44:41.759Z,80.77
2023-04-16T06:47:09.628Z,80.53
2023-04-16T06:49:37.542Z,80.93
2023-04-16T06:52:06.155Z,80.99
2023-04-16T06:54:34.197Z,80.64
2023-04-16T06:57:02.166Z,80.54
2023-04-16T06:59:29.899Z,80.36
2023-04-16T07:01:57.816Z,80.61
2023-04-16T07:04:26.243Z,80.62
2023-04-16T07:06:54.075Z,80.60
2023-04-16T07:09:21.810Z,80.38
2023-04-16T07:11:49.451Z,80.24
2023-04-16T07:14:17.440Z,79.95
2023-04-16T07:16:45.129Z,80.17
2023-04-16T07:19:12.966Z,80.42
2023-04-16T07:21:43.645Z,80.33
2023-04-16T07:24:11.856Z,80.04
2023-04-16T07:26:39.636Z,79.72
2023-04-16T07:29:07.640Z,78.84
2023-04-16T07:31:35.712Z,78.06
2023-04-16T07:34:03.669Z,77.58
2023-04-16T07:36:32.016Z,77.66
2023-04-16T07:38:59.795Z,77.15
2023-04-16T07:41:29.575Z,76.81
2023-04-16T07:43:57.770Z,76.33
2023-04-16T07:46:30.539Z,76.42
2023-04-16T07:49:03.825Z,76.60
2023-04-16T07:51:31.615Z,76.64
2023-04-16T07:53:59.283Z,76.44
2023-04-16T07:56:27.644Z,76.97
2023-04-16T07:58:55.528Z,77.33
2023-04-16T08:01:23.269Z,77.03
2023-04-16T08:03:51.317Z,76.65
2023-04-16T08:06:19.200Z,76.80
2023-04-16T08:08:46.883Z,76.97
2023-04-16T08:11:15.368Z,77.43
2023-04-16T08:13:43.210Z,76.92
2023-04-16T08:16:11.270Z,76.95
2023-04-16T08:18:38.955Z,76.78
2023-04-16T08:21:06.675Z,75.93
2023-04-16T08:23:34.569Z,76.54
2023-04-16T08:26:02.338Z,76.83
2023-04-16T08:28:30.085Z,76.35
2023-04-16T08:30:57.894Z,75.88
2023-04-16T08:33:25.759Z,75.83
2023-04-16T08:35:53.407Z,75.97
2023-04-16T08:38:21.158Z,76.17
2023-04-16T08:40:49.018Z,75.97
2023-04-16T08:43:18.233Z,75.93
2023-04-16T08:45:47.693Z,76.10
2023-04-16T08:48:15.710Z,76.03
2023-04-16T08:50:44.229Z,76.03
2023-04-16T08:53:18.681Z,76.08
2023-04-16T08:55:50.759Z,75.08
2023-04-16T08:58:23.065Z,75.09
2023-04-16T09:00:52.161Z,74.94
2023-04-16T09:03:21.618Z,74.34
2023-04-16T09:05:50.560Z,75.11
2023-04-16T09:08:18.604Z,74.59
2023-04-16T09:10:46.964Z,73.15
2023-04-16T09:13:17.011Z,71.72
2023-04-16T09:15:44.917Z,71.33
2023-04-16T09:18:12.851Z,71.48
2023-04-16T09:20:40.624Z,71.38
2023-04-16T09:23:09.460Z,70.77
2023-04-16T09:25:38.632Z,70.63
2023-04-16T09:28:06.418Z,70.19
2023-04-16T09:30:34.956Z,71.22
2023-04-16T09:33:23.189Z,71.55
2023-04-16T09:35:53.180Z,71.10
2023-04-16T09:38:21.210Z,71.30
2023-04-16T09:41:08.912Z,72.29
2023-04-16T09:43:37.030Z,71.32
2023-04-16T09:46:08.214Z,71.47
2023-04-16T09:48:36.668Z,71.85
2023-04-16T09:51:06.558Z,70.96
2023-04-16T09:53:34.346Z,68.60
2023-04-16T09:56:04.948Z,68.40
2023-04-16T09:58:36.524Z,68.68
2023-04-16T10:01:04.208Z,67.45
2023-04-16T10:03:36.778Z,67.97
2023-04-16T10:06:09.564Z,67.34
2023-04-16T10:08:37.327Z,66.98
2023-04-16T10:11:05.533Z,67.34
2023-04-16T10:13:33.285Z,68.08
2023-04-16T10:16:01.716Z,68.28
2023-04-16T10:18:29.556Z,68.83
2023-04-16T10:20:57.663Z,68.44
2023-04-16T10:23:26.429Z,68.60
2023-04-16T10:25:57.528Z,67.91
2023-04-16T10:28:29.536Z,67.98
2023-04-16T10:30:58.789Z,68.94
2023-04-16T10:33:33.490Z,69.65
2023-04-16T10:36:27.709Z,68.92
2023-04-16T10:38:58.449Z,67.77
2023-04-16T10:41:26.989Z,70.31
2023-04-16T10:44:07.075Z,67.91
2023-04-16T10:46:44.877Z,66.64
2023-04-16T10:49:20.431Z,65.84
2023-04-16T10:52:13.049Z,65.90
2023-04-16T10:54:41.407Z,65.01
2023-04-16T10:57:14.979Z,65.73
2023-04-16T10:59:43.872Z,67.09
2023-04-16T11:02:19.213Z,68.63
2023-04-16T11:04:49.209Z,66.85
2023-04-16T11:07:31.755Z,65.44
2023-04-16T11:10:04.157Z,65.82
2023-04-16T11:12:40.492Z,64.59
2023-04-16T11:15:13.453Z,64.56
2023-04-16T11:17:48.527Z,66.75
2023-04-16T11:20:19.771Z,66.71
2023-04-16T11:22:53.835Z,65.36
2023-04-16T11:25:22.966Z,64.40
2023-04-16T11:27:52.096Z,64.82
2023-04-16T11:30:33.433Z,64.85
2023-04-16T11:33:12.324Z,65.23
2023-04-16T11:35:43.347Z,65.41
2023-04-16T11:38:11.035Z,65.58
2023-04-16T11:40:38.641Z,66.02
2023-04-16T11:43:16.825Z,66.68
2023-04-16T11:46:10.026Z,65.46
2023-04-16T11:48:50.372Z,66.26
2023-04-16T11:51:19.335Z,66.10
2023-04-16T11:53:53.171Z,65.80
2023-04-16T11:56:32.976Z,65.69
2023-04-16T11:59:24.201Z,66.16
2023-04-16T12:01:58.032Z,66.80
2023-04-16T12:04:27.743Z,66.26
2023-04-16T12:07:10.123Z,66.03
2023-04-16T12:09:40.784Z,66.40
2023-04-16T12:12:31.660Z,66.42
2023-04-16T12:15:03.609Z,66.66
2023-04-16T12:17:35.391Z,67.08
2023-04-16T12:20:08.441Z,66.69
2023-04-16T12:22:38.078Z,66.68
2023-04-16T12:25:10.660Z,66.47
2023-04-16T12:28:08.201Z,66.16
2023-04-16T12:30:51.502Z,66.54
2023-04-16T12:33:19.602Z,66.41
2023-04-16T12:35:47.457Z,66.01
2023-04-16T12:38:15.539Z,65.19
2023-04-16T12:40:43.717Z,65.17
2023-04-16T12:43:11.992Z,65.01
2023-04-16T12:45:40.590Z,64.41
2023-04-16T12:48:08.442Z,63.64
2023-04-16T12:50:36.209Z,63.25
2023-04-16T12:53:04.063Z,64.08
2023-04-16T12:55:31.836Z,63.94
2023-04-16T12:57:59.539Z,64.59
2023-04-16T13:00:27.357Z,64.78
2023-04-16T13:02:55.177Z,64.52
2023-04-16T13:05:22.984Z,65.29
2023-04-16T13:07:50.698Z,64.78
2023-04-16T13:10:21.571Z,64.37
2023-04-16T13:12:49.358Z,65.43
2023-04-16T13:15:17.207Z,64.85
2023-04-16T13:17:45.057Z,64.44
2023-04-16T13:20:12.955Z,64.37
2023-04-16T13:22:40.861Z,64.81
2023-04-16T13:25:09.359Z,63.86
2023-04-16T13:27:37.170Z,63.28
2023-04-16T13:30:05.877Z,64.54
2023-04-16T13:32:33.861Z,64.60
2023-04-16T13:35:01.778Z,63.07
2023-04-16T13:37:29.474Z,62.23
2023-04-16T13:39:57.195Z,61.83
2023-04-16T13:42:24.856Z,60.94
2023-04-16T13:44:55.046Z,60.52
2023-04-16T13:47:22.957Z,60.64
2023-04-16T13:49:50.828Z,60.66
2023-04-16T13:52:18.572Z,61.23
2023-04-16T13:54:46.258Z,61.08
2023-04-16T13:57:14.240Z,61.73
2023-04-16T13:59:42.076Z,62.09
2023-04-16T14:02:14.308Z,61.96
2023-04-16T14:04:42.068Z,62.67
2023-04-16T14:07:09.734Z,62.87
2023-04-16T14:09:37.672Z,62.69
2023-04-16T14:12:05.970Z,63.54
2023-04-16T14:14:33.895Z,63.01
2023-04-16T14:17:03.425Z,63.25
2023-04-16T14:19:31.349Z,63.34
2023-04-16T14:21:59.115Z,62.75
2023-04-16T14:24:26.876Z,62.34
2023-04-16T14:26:54.526Z,62.25
2023-04-16T14:29:22.281Z,62.00
2023-04-16T14:31:50.512Z,62.70
2023-04-16T14:34:18.248Z,62.51
2023-04-16T14:36:46.027Z,61.89
2023-04-16T14:39:13.760Z,61.92
2023-04-16T14:41:41.631Z,61.76
2023-04-16T14:44:09.234Z,62.39
2023-04-16T14:46:38.619Z,62.17
2023-04-16T14:49:06.533Z,62.27
2023-04-16T14:51:34.284Z,62.13
2023-04-16T14:54:02.183Z,61.57
2023-04-16T14:56:30.205Z,61.96
2023-04-16T14:58:57.916Z,62.73
2023-04-16T15:01:26.281Z,62.65
2023-04-16T15:03:56.611Z,61.92
2023-04-16T15:06:24.476Z,61.97
2023-04-16T15:08:52.236Z,61.56
2023-04-16T15:11:20.024Z,61.83
2023-04-16T15:13:47.708Z,62.24
2023-04-16T15:16:15.451Z,62.04
2023-04-16T15:18:43.410Z,62.85
2023-04-16T15:21:12.556Z,63.59
2023-04-16T15:23:40.668Z,64.36
2023-04-16T15:26:08.408Z,64.24
2023-04-16T15:28:36.061Z,64.24
2023-04-16T15:31:03.771Z,63.97
2023-04-16T15:33:31.514Z,64.01
2023-04-16T15:35:59.198Z,64.17
2023-04-16T15:38:28.782Z,64.53
2023-04-16T15:40:59.823Z,64.51
2023-04-16T15:43:29.120Z,64.84
2023-04-16T15:45:57.400Z,64.90
2023-04-16T15:48:25.110Z,64.86
2023-04-16T15:50:54.264Z,64.95
2023-04-16T15:53:22.307Z,65.06
2023-04-16T15:55:52.685Z,65.25
2023-04-16T15:58:23.594Z,65.56
2023-04-16T16:00:51.541Z,65.34
2023-04-16T16:03:20.123Z,64.70
2023-04-16T16:05:48.620Z,65.10
2023-04-16T16:08:16.818Z,64.62
2023-04-16T16:10:44.700Z,64.47
2023-04-16T16:13:14.111Z,64.97
2023-04-16T16:15:42.624Z,65.21
2023-04-16T16:18:10.831Z,65.27
2023-04-16T16:20:40.662Z,65.33
2023-04-16T16:23:08.420Z,64.77
2023-04-16T16:25:36.355Z,64.67
2023-04-16T16:28:06.651Z,65.07
2023-04-16T16:30:34.527Z,65.23
2023-04-16T16:33:02.301Z,65.59
2023-04-16T16:35:30.081Z,65.69
2023-04-16T16:37:59.481Z,66.00
2023-04-16T16:40:27.929Z,65.72
2023-04-16T16:42:56.185Z,65.41
2023-04-16T16:45:26.321Z,64.96
2023-04-16T16:47:55.008Z,65.07
2023-04-16T16:50:22.910Z,64.81
2023-04-16T16:52:50.858Z,65.16
2023-04-16T16:55:19.116Z,65.64
2023-04-16T16:57:47.115Z,65.74
2023-04-16T17:00:16.347Z,66.23
2023-04-16T17:02:44.556Z,66.57
2023-04-16T17:05:13.085Z,67.03
2023-04-16T17:07:40.824Z,68.07
2023-04-16T17:10:15.863Z,68.33
2023-04-16T17:12:43.548Z,68.65
2023-04-16T17:15:11.887Z,69.21
2023-04-16T17:17:39.778Z,69.59
2023-04-16T17:20:10.006Z,70.05
2023-04-16T17:22:39.126Z,71.08
2023-04-16T17:25:08.222Z,71.39
2023-04-16T17:27:36.309Z,70.96
2023-04-16T17:30:05.840Z,72.36
2023-04-16T17:32:33.773Z,72.80
2023-04-16T17:35:04.515Z,73.62
2023-04-16T17:37:32.692Z,73.69
2023-04-16T17:40:00.540Z,73.89
2023-04-16T17:42:28.246Z,73.97
2023-04-16T17:44:56.031Z,75.16
2023-04-16T17:47:23.783Z,75.57
2023-04-16T17:49:55.555Z,76.13
2023-04-16T17:52:23.387Z,76.41
2023-04-16T17:54:51.286Z,76.69
2023-04-16T17:57:19.035Z,76.24
2023-04-16T17:59:46.800Z,76.24
2023-04-16T18:02:14.902Z,77.23
2023-04-16T18:04:43.045Z,77.18
2023-04-16T18:07:11.568Z,77.54
2023-04-16T18:09:39.377Z,77.27
2023-04-16T18:12:07.542Z,78.06
2023-04-16T18:14:35.999Z,77.61
2023-04-16T18:17:06.243Z,77.90
2023-04-16T18:19:35.610Z,78.36
2023-04-16T18:22:03.882Z,78.55
2023-04-16T18:24:33.498Z,78.86
2023-04-16T18:27:01.734Z,78.56
2023-04-16T18:29:29.571Z,78.35
2023-04-16T18:31:57.435Z,79.19
2023-04-16T18:34:26.026Z,78.82
2023-04-16T18:36:54.162Z,78.88
2023-04-16T18:39:21.997Z,78.30
2023-04-16T18:41:49.919Z,78.00
2023-04-16T18:44:19.920Z,78.64
2023-04-16T18:46:48.650Z,79.51
2023-04-16T18:49:16.529Z,79.39
2023-04-16T18:51:44.294Z,79.36
2023-04-16T18:54:12.103Z,78.99
2023-04-16T18:56:39.889Z,79.63
2023-04-16T18:59:07.710Z,80.15
2023-04-16T19:01:35.740Z,80.87
2023-04-16T19:04:03.845Z,80.61
2023-04-16T19:06:32.542Z,80.62
2023-04-16T19:09:00.257Z,80.48
2023-04-16T19:11:28.039Z,81.05
2023-04-16T19:13:57.497Z,81.71
2023-04-16T19:16:25.307Z,81.83
2023-04-16T19:18:53.100Z,81.73
2023-04-16T19:21:20.792Z,81.95
2023-04-16T19:23:49.117Z,82.14
2023-04-16T19:26:16.870Z,82.16
2023-04-16T19:28:45.827Z,81.88
2023-04-16T19:31:13.571Z,81.59
2023-04-16T19:33:41.685Z,81.51
2023-04-16T19:36:09.444Z,82.06
2023-04-16T19:38:37.261Z,82.06
2023-04-16T19:41:05.099Z,81.85
2023-04-16T19:43:33.355Z,82.06
2023-04-16T19:46:01.375Z,82.18
2023-04-16T19:48:30.581Z,82.03
2023-04-16T19:51:03.296Z,82.02
2023-04-16T19:53:31.072Z,82.19
2023-04-16T19:55:58.967Z,81.91
2023-04-16T19:58:27.210Z,82.41
2023-04-16T20:00:55.837Z,82.85
2023-04-16T20:03:23.700Z,82.69
2023-04-16T20:05:51.372Z,82.68
2023-04-16T20:08:19.403Z,82.66
2023-04-16T20:10:47.060Z,82.50
2023-04-16T20:13:16.716Z,83.79
2023-04-16T20:15:47.288Z,83.73
2023-04-16T20:18:15.451Z,84.57
2023-04-16T20:20:43.188Z,84.57
2023-04-16T20:23:11.288Z,84.28
2023-04-16T20:25:43.065Z,83.96
2023-04-16T20:28:10.821Z,84.36
2023-04-16T20:30:41.472Z,84.45
2023-04-16T20:33:09.619Z,84.26
2023-04-16T20:35:37.656Z,84.50
2023-04-16T20:38:05.389Z,84.38
2023-04-16T20:40:33.396Z,84.60
2023-04-16T20:43:01.178Z,84.48
2023-04-16T20:45:32.233Z,84.21
2023-04-16T20:48:00.141Z,84.20
2023-04-16T20:50:27.987Z,84.46
2023-04-16T20:52:56.398Z,84.36
2023-04-16T20:55:24.570Z,84.44
2023-04-16T20:57:52.446Z,84.81
2023-04-16T21:00:20.591Z,84.91
2023-04-16T21:02:48.437Z,84.87
2023-04-16T21:05:16.354Z,84.58
2023-04-16T21:07:44.074Z,85.04
2023-04-16T21:10:11.991Z,85.33
2023-04-16T21:12:39.834Z,85.12
2023-04-16T21:15:07.901Z,84.94
2023-04-16T21:17:35.930Z,85.05
2023-04-16T21:20:06.982Z,85.07
2023-04-16T21:22:34.811Z,85.44
2023-04-16T21:25:02.765Z,85.87
2023-04-16T21:27:30.523Z,85.80
2023-04-16T21:29:58.306Z,85.89
2023-04-16T21:32:26.091Z,85.98
2023-04-16T21:34:53.926Z,86.43
2023-04-16T21:37:21.579Z,86.57
2023-04-16T21:39:49.383Z,86.39
2023-04-16T21:42:17.107Z,86.47
2023-04-16T21:44:44.712Z,86.74
2023-04-16T21:47:12.908Z,87.14
2023-04-16T21:49:42.312Z,87.17
2023-04-16T21:52:18.397Z,87.11
2023-04-16T21:54:47.016Z,87.11
2023-04-16T21:57:14.856Z,87.09
2023-04-16T21:59:42.490Z,87.30
2023-04-16T22:02:10.229Z,87.42
2023-04-16T22:04:39.020Z,87.39
2023-04-16T22:07:09.007Z,87.40
2023-04-16T22:09:36.851Z,87.43
2023-04-16T22:12:12.199Z,87.46
2023-04-16T22:14:46.232Z,87.57
2023-04-16T22:17:17.188Z,87.54
2023-04-16T22:19:45.584Z,87.62
2023-04-16T22:22:13.564Z,87.68
2023-04-16T22:24:42.738Z,87.56
2023-04-16T22:27:10.744Z,87.36
2023-04-16T22:29:38.386Z,87.31
2023-04-16T22:32:06.082Z,87.10
2023-04-16T22:34:33.898Z,87.57
2023-04-16T22:37:03.145Z,87.66
2023-04-16T22:39:31.701Z,87.74
2023-04-16T22:41:59.679Z,87.60
2023-04-16T22:44:27.336Z,87.96
2023-04-16T22:46:55.036Z,88.09
2023-04-16T22:49:22.694Z,88.33
2023-04-16T22:51:50.353Z,88.28
2023-04-16T22:54:17.978Z,88.30
2023-04-16T22:56:48.734Z,88.24
2023-04-16T22:59:16.530Z,88.18
2023-04-16T23:01:44.279Z,88.33
2023-04-16T23:04:12.182Z,88.24
2023-04-16T23:06:41.000Z,88.21
2023-04-16T23:09:09.484Z,88.43
2023-04-16T23:11:37.236Z,88.44
2023-04-16T23:14:05.223Z,88.46
2023-04-16T23:16:32.851Z,88.30
2023-04-16T23:19:00.468Z,88.18
2023-04-16T23:21:28.673Z,88.08
2023-04-16T23:23:57.156Z,88.04
2023-04-16T23:26:24.840Z,87.87
2023-04-16T23:28:52.461Z,87.98
2023-04-16T23:31:20.190Z,87.92
2023-04-16T23:33:47.918Z,87.66
2023-04-16T23:36:15.785Z,87.67
2023-04-16T23:38:43.453Z,87.66
2023-04-16T23:41:11.143Z,87.63
2023-04-16T23:43:40.697Z,87.60
2023-04-16T23:46:08.528Z,87.85
2023-04-16T23:48:36.327Z,88.10
2023-04-16T23:51:04.427Z,88.18
2023-04-16T23:53:32.055Z,88.17
2023-04-16T23:55:59.660Z,88.11
2023-04-16T23:58:27.390Z,88.02
